sensor_id;sensor_type;location;lat;lon;timestamp;pressure;altitude;pressure_sealevel;temperature;humidity
67430;BME280;54298;52.076;5.264;2022-09-19T00:00:51;101738.0;;;10.25;86.76
67430;BME280;54298;52.076;5.264;2022-09-19T00:02:28;101735.0;;;10.21;86.85
67430;BME280;54298;52.076;5.264;2022-09-19T00:04:06;101738.0;;;10.25;86.95
67430;BME280;54298;52.076;5.264;2022-09-19T00:05:46;101730.0;;;10.23;86.94
67430;BME280;54298;52.076;5.264;2022-09-19T00:09:00;101730.0;;;10.3;86.74
67430;BME280;54298;52.076;5.264;2022-09-19T00:10:38;101740.0;;;10.35;86.46
67430;BME280;54298;52.076;5.264;2022-09-19T00:12:16;101739.0;;;10.33;86.19
67430;BME280;54298;52.076;5.264;2022-09-19T00:15:34;101742.0;;;10.39;86.22
67430;BME280;54298;52.076;5.264;2022-09-19T00:17:11;101740.0;;;10.38;86.18
67430;BME280;54298;52.076;5.264;2022-09-19T00:18:50;101739.0;;;10.28;86.91
67430;BME280;54298;52.076;5.264;2022-09-19T00:20:28;101739.0;;;10.27;87.05
67430;BME280;54298;52.076;5.264;2022-09-19T00:24:46;101747.0;;;10.18;87.35
67430;BME280;54298;52.076;5.264;2022-09-19T00:26:23;101748.0;;;10.18;87.8
67430;BME280;54298;52.076;5.264;2022-09-19T00:28:00;101751.0;;;10.16;87.83
67430;BME280;54298;52.076;5.264;2022-09-19T00:29:38;101749.0;;;10.23;87.72
67430;BME280;54298;52.076;5.264;2022-09-19T00:31:19;101749.0;;;10.18;88.03
67430;BME280;54298;52.076;5.264;2022-09-19T00:32:58;101749.0;;;10.21;87.94
67430;BME280;54298;52.076;5.264;2022-09-19T00:36:16;101744.0;;;10.21;88.02
67430;BME280;54298;52.076;5.264;2022-09-19T00:37:53;101755.0;;;10.23;88.2
67430;BME280;54298;52.076;5.264;2022-09-19T00:39:30;101753.0;;;10.27;87.92
67430;BME280;54298;52.076;5.264;2022-09-19T00:42:49;101752.0;;;10.42;87.45
67430;BME280;54298;52.076;5.264;2022-09-19T00:45:01;101759.0;;;10.44;87.0
67430;BME280;54298;52.076;5.264;2022-09-19T00:46:39;101755.0;;;10.4;87.04
67430;BME280;54298;52.076;5.264;2022-09-19T00:48:17;101759.0;;;10.26;87.84
67430;BME280;54298;52.076;5.264;2022-09-19T00:49:58;101758.0;;;10.34;87.92
67430;BME280;54298;52.076;5.264;2022-09-19T00:53:21;101758.0;;;10.4;87.86
67430;BME280;54298;52.076;5.264;2022-09-19T00:55:00;101758.0;;;10.54;87.35
67430;BME280;54298;52.076;5.264;2022-09-19T00:56:40;101760.0;;;10.52;87.08
67430;BME280;54298;52.076;5.264;2022-09-19T00:58:21;101760.0;;;10.4;87.48
67430;BME280;54298;52.076;5.264;2022-09-19T01:01:40;101755.0;;;10.4;87.51
67430;BME280;54298;52.076;5.264;2022-09-19T01:03:17;101752.0;;;10.46;87.38
67430;BME280;54298;52.076;5.264;2022-09-19T01:04:53;101751.0;;;10.43;87.38
67430;BME280;54298;52.076;5.264;2022-09-19T01:06:41;101749.0;;;10.47;87.16
67430;BME280;54298;52.076;5.264;2022-09-19T01:11:02;101753.0;;;10.33;86.91
67430;BME280;54298;52.076;5.264;2022-09-19T01:12:52;101755.0;;;10.35;86.93
67430;BME280;54298;52.076;5.264;2022-09-19T01:16:52;101759.0;;;10.26;86.54
67430;BME280;54298;52.076;5.264;2022-09-19T01:20:56;101757.0;;;10.16;86.41
67430;BME280;54298;52.076;5.264;2022-09-19T01:22:54;101763.0;;;10.14;86.86
67430;BME280;54298;52.076;5.264;2022-09-19T01:24:51;101762.0;;;10.19;86.29
67430;BME280;54298;52.076;5.264;2022-09-19T01:26:42;101768.0;;;10.11;86.08
67430;BME280;54298;52.076;5.264;2022-09-19T01:28:29;101765.0;;;10.06;86.27
67430;BME280;54298;52.076;5.264;2022-09-19T01:30:11;101770.0;;;9.9;86.7
67430;BME280;54298;52.076;5.264;2022-09-19T01:31:51;101775.0;;;9.88;86.88
67430;BME280;54298;52.076;5.264;2022-09-19T01:35:10;101771.0;;;9.78;86.94
67430;BME280;54298;52.076;5.264;2022-09-19T01:36:52;101774.0;;;9.81;87.05
67430;BME280;54298;52.076;5.264;2022-09-19T01:38:39;101771.0;;;9.92;86.4
67430;BME280;54298;52.076;5.264;2022-09-19T01:40:19;101770.0;;;9.81;86.74
67430;BME280;54298;52.076;5.264;2022-09-19T01:41:59;101769.0;;;9.85;86.69
67430;BME280;54298;52.076;5.264;2022-09-19T01:45:12;101771.0;;;9.84;86.41
67430;BME280;54298;52.076;5.264;2022-09-19T01:46:52;101764.0;;;9.74;86.82
67430;BME280;54298;52.076;5.264;2022-09-19T01:48:53;101773.0;;;9.77;86.77
67430;BME280;54298;52.076;5.264;2022-09-19T01:50:44;101769.0;;;9.81;86.71
67430;BME280;54298;52.076;5.264;2022-09-19T01:52:42;101771.0;;;9.81;86.73
67430;BME280;54298;52.076;5.264;2022-09-19T01:56:16;101776.0;;;9.8;86.91
67430;BME280;54298;52.076;5.264;2022-09-19T01:58:03;101775.0;;;9.78;86.72
67430;BME280;54298;52.076;5.264;2022-09-19T01:59:50;101776.0;;;9.81;86.55
67430;BME280;54298;52.076;5.264;2022-09-19T02:01:35;101780.0;;;9.67;86.91
67430;BME280;54298;52.076;5.264;2022-09-19T02:03:22;101778.0;;;9.65;87.09
67430;BME280;54298;52.076;5.264;2022-09-19T02:05:05;101786.0;;;9.65;87.31
67430;BME280;54298;52.076;5.264;2022-09-19T02:08:32;101785.0;;;9.68;86.84
67430;BME280;54298;52.076;5.264;2022-09-19T02:10:17;101792.0;;;9.64;86.79
67430;BME280;54298;52.076;5.264;2022-09-19T02:11:56;101791.0;;;9.68;86.43
67430;BME280;54298;52.076;5.264;2022-09-19T02:13:35;101795.0;;;9.58;86.63
67430;BME280;54298;52.076;5.264;2022-09-19T02:17:02;101797.0;;;9.49;87.15
67430;BME280;54298;52.076;5.264;2022-09-19T02:18:46;101793.0;;;9.58;86.73
67430;BME280;54298;52.076;5.264;2022-09-19T02:20:27;101792.0;;;9.56;86.9
67430;BME280;54298;52.076;5.264;2022-09-19T02:22:06;101797.0;;;9.57;86.94
67430;BME280;54298;52.076;5.264;2022-09-19T02:23:50;101790.0;;;9.57;87.06
67430;BME280;54298;52.076;5.264;2022-09-19T02:27:15;101794.0;;;9.68;86.59
67430;BME280;54298;52.076;5.264;2022-09-19T02:28:57;101802.0;;;9.63;86.34
67430;BME280;54298;52.076;5.264;2022-09-19T02:30:36;101801.0;;;9.53;86.53
67430;BME280;54298;52.076;5.264;2022-09-19T02:32:15;101805.0;;;9.43;87.18
67430;BME280;54298;52.076;5.264;2022-09-19T02:35:42;101809.0;;;9.48;87.46
67430;BME280;54298;52.076;5.264;2022-09-19T02:37:27;101808.0;;;9.49;87.11
67430;BME280;54298;52.076;5.264;2022-09-19T02:39:13;101809.0;;;9.43;87.31
67430;BME280;54298;52.076;5.264;2022-09-19T02:41:01;101809.0;;;9.46;87.23
67430;BME280;54298;52.076;5.264;2022-09-19T02:42:47;101805.0;;;9.43;87.62
67430;BME280;54298;52.076;5.264;2022-09-19T02:46:16;101805.0;;;9.48;87.41
67430;BME280;54298;52.076;5.264;2022-09-19T02:48:00;101807.0;;;9.39;87.82
67430;BME280;54298;52.076;5.264;2022-09-19T02:49:41;101802.0;;;9.47;87.93
67430;BME280;54298;52.076;5.264;2022-09-19T02:51:25;101802.0;;;9.48;87.89
67430;BME280;54298;52.076;5.264;2022-09-19T02:53:10;101802.0;;;9.39;88.46
67430;BME280;54298;52.076;5.264;2022-09-19T02:56:35;101810.0;;;9.49;88.29
67430;BME280;54298;52.076;5.264;2022-09-19T02:58:17;101806.0;;;9.49;88.19
67430;BME280;54298;52.076;5.264;2022-09-19T02:59:59;101806.0;;;9.47;88.45
67430;BME280;54298;52.076;5.264;2022-09-19T03:01:42;101807.0;;;9.5;88.7
67430;BME280;54298;52.076;5.264;2022-09-19T03:06:09;101811.0;;;9.6;88.12
67430;BME280;54298;52.076;5.264;2022-09-19T03:07:54;101813.0;;;9.66;88.28
67430;BME280;54298;52.076;5.264;2022-09-19T03:11:12;101807.0;;;9.74;87.65
67430;BME280;54298;52.076;5.264;2022-09-19T03:12:54;101811.0;;;9.65;87.87
67430;BME280;54298;52.076;5.264;2022-09-19T03:14:32;101805.0;;;9.74;87.65
67430;BME280;54298;52.076;5.264;2022-09-19T03:16:12;101805.0;;;9.73;87.46
67430;BME280;54298;52.076;5.264;2022-09-19T03:19:31;101807.0;;;9.72;87.39
67430;BME280;54298;52.076;5.264;2022-09-19T03:21:10;101809.0;;;9.75;87.07
67430;BME280;54298;52.076;5.264;2022-09-19T03:22:50;101807.0;;;9.67;87.24
67430;BME280;54298;52.076;5.264;2022-09-19T03:24:28;101805.0;;;9.6;87.29
67430;BME280;54298;52.076;5.264;2022-09-19T03:27:44;101811.0;;;9.56;87.36
67430;BME280;54298;52.076;5.264;2022-09-19T03:29:21;101807.0;;;9.53;87.53
67430;BME280;54298;52.076;5.264;2022-09-19T03:30:59;101815.0;;;9.48;87.54
67430;BME280;54298;52.076;5.264;2022-09-19T03:34:16;101813.0;;;9.53;87.41
67430;BME280;54298;52.076;5.264;2022-09-19T03:35:56;101814.0;;;9.51;87.05
67430;BME280;54298;52.076;5.264;2022-09-19T03:37:32;101817.0;;;9.49;87.15
67430;BME280;54298;52.076;5.264;2022-09-19T03:39:09;101813.0;;;9.56;86.63
67430;BME280;54298;52.076;5.264;2022-09-19T03:42:21;101815.0;;;9.6;86.26
67430;BME280;54298;52.076;5.264;2022-09-19T03:44:01;101813.0;;;9.56;86.16
67430;BME280;54298;52.076;5.264;2022-09-19T03:45:38;101817.0;;;9.51;86.04
67430;BME280;54298;52.076;5.264;2022-09-19T03:48:52;101817.0;;;9.42;86.15
67430;BME280;54298;52.076;5.264;2022-09-19T03:50:29;101817.0;;;9.39;86.29
67430;BME280;54298;52.076;5.264;2022-09-19T03:52:05;101814.0;;;9.3;86.82
67430;BME280;54298;52.076;5.264;2022-09-19T03:53:43;101817.0;;;9.27;87.18
67430;BME280;54298;52.076;5.264;2022-09-19T03:56:56;101822.0;;;9.17;87.88
67430;BME280;54298;52.076;5.264;2022-09-19T04:00:12;101822.0;;;9.32;87.63
67430;BME280;54298;52.076;5.264;2022-09-19T04:03:25;101825.0;;;9.42;87.13
67430;BME280;54298;52.076;5.264;2022-09-19T04:05:02;101827.0;;;9.25;87.83
67430;BME280;54298;52.076;5.264;2022-09-19T04:06:40;101822.0;;;9.32;87.9
67430;BME280;54298;52.076;5.264;2022-09-19T04:09:54;101826.0;;;9.32;88.0
67430;BME280;54298;52.076;5.264;2022-09-19T04:11:30;101824.0;;;9.31;88.11
67430;BME280;54298;52.076;5.264;2022-09-19T04:13:06;101825.0;;;9.43;87.71
67430;BME280;54298;52.076;5.264;2022-09-19T04:14:43;101827.0;;;9.38;87.42
67430;BME280;54298;52.076;5.264;2022-09-19T04:17:56;101830.0;;;9.42;87.46
67430;BME280;54298;52.076;5.264;2022-09-19T04:19:32;101828.0;;;9.34;87.15
67430;BME280;54298;52.076;5.264;2022-09-19T04:21:08;101833.0;;;9.48;86.52
67430;BME280;54298;52.076;5.264;2022-09-19T04:24:21;101835.0;;;9.59;85.86
67430;BME280;54298;52.076;5.264;2022-09-19T04:26:05;101836.0;;;9.63;85.28
67430;BME280;54298;52.076;5.264;2022-09-19T04:27:44;101842.0;;;9.38;85.67
67430;BME280;54298;52.076;5.264;2022-09-19T04:29:20;101842.0;;;9.53;85.53
67430;BME280;54298;52.076;5.264;2022-09-19T04:32:33;101840.0;;;9.3;85.71
67430;BME280;54298;52.076;5.264;2022-09-19T04:34:14;101841.0;;;9.31;85.96
67430;BME280;54298;52.076;5.264;2022-09-19T04:35:50;101843.0;;;9.41;85.38
67430;BME280;54298;52.076;5.264;2022-09-19T04:39:07;101840.0;;;9.32;85.41
67430;BME280;54298;52.076;5.264;2022-09-19T04:40:45;101839.0;;;9.32;85.15
67430;BME280;54298;52.076;5.264;2022-09-19T04:42:22;101847.0;;;9.23;84.89
67430;BME280;54298;52.076;5.264;2022-09-19T04:43:58;101846.0;;;9.23;84.86
67430;BME280;54298;52.076;5.264;2022-09-19T04:47:14;101848.0;;;9.17;84.94
67430;BME280;54298;52.076;5.264;2022-09-19T04:48:55;101848.0;;;9.06;85.06
67430;BME280;54298;52.076;5.264;2022-09-19T04:50:32;101855.0;;;9.06;85.09
67430;BME280;54298;52.076;5.264;2022-09-19T04:53:48;101851.0;;;8.86;85.56
67430;BME280;54298;52.076;5.264;2022-09-19T04:55:25;101852.0;;;8.69;85.93
67430;BME280;54298;52.076;5.264;2022-09-19T04:57:01;101861.0;;;8.74;86.22
67430;BME280;54298;52.076;5.264;2022-09-19T04:58:40;101858.0;;;8.63;86.51
67430;BME280;54298;52.076;5.264;2022-09-19T05:02:13;101861.0;;;8.56;86.9
67430;BME280;54298;52.076;5.264;2022-09-19T05:03:49;101864.0;;;8.65;86.57
67430;BME280;54298;52.076;5.264;2022-09-19T05:05:26;101862.0;;;8.6;86.59
67430;BME280;54298;52.076;5.264;2022-09-19T05:07:02;101861.0;;;8.68;86.36
67430;BME280;54298;52.076;5.264;2022-09-19T05:10:16;101866.0;;;8.61;86.66
67430;BME280;54298;52.076;5.264;2022-09-19T05:11:57;101860.0;;;8.6;86.94
67430;BME280;54298;52.076;5.264;2022-09-19T05:13:34;101871.0;;;8.56;86.88
67430;BME280;54298;52.076;5.264;2022-09-19T05:16:50;101870.0;;;8.58;86.95
67430;BME280;54298;52.076;5.264;2022-09-19T05:18:28;101870.0;;;8.5;87.37
67430;BME280;54298;52.076;5.264;2022-09-19T05:20:05;101874.0;;;8.5;87.68
67430;BME280;54298;52.076;5.264;2022-09-19T05:21:45;101875.0;;;8.61;87.51
67430;BME280;54298;52.076;5.264;2022-09-19T05:25:03;101877.0;;;8.77;86.87
67430;BME280;54298;52.076;5.264;2022-09-19T05:26:41;101875.0;;;8.77;86.73
67430;BME280;54298;52.076;5.264;2022-09-19T05:28:19;101877.0;;;8.73;86.86
67430;BME280;54298;52.076;5.264;2022-09-19T05:29:59;101880.0;;;8.65;87.34
67430;BME280;54298;52.076;5.264;2022-09-19T05:33:13;101876.0;;;8.71;87.47
67430;BME280;54298;52.076;5.264;2022-09-19T05:34:49;101884.0;;;8.82;87.3
67430;BME280;54298;52.076;5.264;2022-09-19T05:36:27;101886.0;;;8.81;87.36
67430;BME280;54298;52.076;5.264;2022-09-19T05:39:40;101882.0;;;8.78;87.56
67430;BME280;54298;52.076;5.264;2022-09-19T05:41:17;101886.0;;;8.85;87.38
67430;BME280;54298;52.076;5.264;2022-09-19T05:42:59;101886.0;;;8.82;88.11
67430;BME280;54298;52.076;5.264;2022-09-19T05:44:35;101892.0;;;8.86;88.42
67430;BME280;54298;52.076;5.264;2022-09-19T05:47:49;101894.0;;;8.97;88.24
67430;BME280;54298;52.076;5.264;2022-09-19T05:49:25;101898.0;;;8.96;88.57
67430;BME280;54298;52.076;5.264;2022-09-19T05:51:02;101900.0;;;9.01;88.57
67430;BME280;54298;52.076;5.264;2022-09-19T05:55:30;101896.0;;;9.09;88.78
67430;BME280;54298;52.076;5.264;2022-09-19T05:57:07;101902.0;;;9.13;88.85
67430;BME280;54298;52.076;5.264;2022-09-19T06:00:20;101898.0;;;9.27;88.57
67430;BME280;54298;52.076;5.264;2022-09-19T06:01:57;101898.0;;;9.41;88.22
67430;BME280;54298;52.076;5.264;2022-09-19T06:03:34;101902.0;;;9.48;88.06
67430;BME280;54298;52.076;5.264;2022-09-19T06:06:48;101901.0;;;9.52;88.19
67430;BME280;54298;52.076;5.264;2022-09-19T06:08:25;101908.0;;;9.64;88.21
67430;BME280;54298;52.076;5.264;2022-09-19T06:10:01;101901.0;;;9.81;88.27
67430;BME280;54298;52.076;5.264;2022-09-19T06:13:15;101907.0;;;9.9;88.35
67430;BME280;54298;52.076;5.264;2022-09-19T06:14:52;101909.0;;;9.96;88.8
67430;BME280;54298;52.076;5.264;2022-09-19T06:16:28;101908.0;;;10.06;88.75
67430;BME280;54298;52.076;5.264;2022-09-19T06:18:05;101908.0;;;10.23;88.97
67430;BME280;54298;52.076;5.264;2022-09-19T06:21:18;101911.0;;;10.38;89.56
67430;BME280;54298;52.076;5.264;2022-09-19T06:22:55;101913.0;;;10.56;89.17
67430;BME280;54298;52.076;5.264;2022-09-19T06:24:32;101919.0;;;10.72;89.29
67430;BME280;54298;52.076;5.264;2022-09-19T06:27:53;101919.0;;;10.86;89.37
67430;BME280;54298;52.076;5.264;2022-09-19T06:29:30;101930.0;;;11.01;90.09
67430;BME280;54298;52.076;5.264;2022-09-19T06:31:08;101930.0;;;11.25;90.27
67430;BME280;54298;52.076;5.264;2022-09-19T06:32:44;101936.0;;;11.47;89.86
67430;BME280;54298;52.076;5.264;2022-09-19T06:35:59;101932.0;;;11.6;89.26
67430;BME280;54298;52.076;5.264;2022-09-19T06:37:37;101935.0;;;11.72;89.29
67430;BME280;54298;52.076;5.264;2022-09-19T06:39:13;101928.0;;;11.91;88.88
67430;BME280;54298;52.076;5.264;2022-09-19T06:42:25;101932.0;;;12.05;88.7
67430;BME280;54298;52.076;5.264;2022-09-19T06:44:02;101930.0;;;12.17;88.63
67430;BME280;54298;52.076;5.264;2022-09-19T06:45:40;101933.0;;;12.32;88.49
67430;BME280;54298;52.076;5.264;2022-09-19T06:48:53;101934.0;;;12.5;88.27
67430;BME280;54298;52.076;5.264;2022-09-19T06:50:31;101934.0;;;12.65;87.53
67430;BME280;54298;52.076;5.264;2022-09-19T06:52:07;101936.0;;;12.74;87.21
67430;BME280;54298;52.076;5.264;2022-09-19T06:53:47;101937.0;;;12.83;87.25
67430;BME280;54298;52.076;5.264;2022-09-19T06:58:38;101942.0;;;13.0;86.3
67430;BME280;54298;52.076;5.264;2022-09-19T07:00:15;101950.0;;;13.14;86.49
67430;BME280;54298;52.076;5.264;2022-09-19T07:03:27;101945.0;;;13.11;85.92
67430;BME280;54298;52.076;5.264;2022-09-19T07:05:04;101950.0;;;13.06;85.64
67430;BME280;54298;52.076;5.264;2022-09-19T07:06:40;101950.0;;;13.17;85.24
67430;BME280;54298;52.076;5.264;2022-09-19T07:08:17;101951.0;;;13.26;84.12
67430;BME280;54298;52.076;5.264;2022-09-19T07:11:29;101951.0;;;13.26;83.72
67430;BME280;54298;52.076;5.264;2022-09-19T07:13:10;101955.0;;;13.37;83.45
67430;BME280;54298;52.076;5.264;2022-09-19T07:14:46;101955.0;;;13.43;83.86
67430;BME280;54298;52.076;5.264;2022-09-19T07:17:59;101946.0;;;13.42;83.82
67430;BME280;54298;52.076;5.264;2022-09-19T07:19:35;101951.0;;;13.5;84.27
67430;BME280;54298;52.076;5.264;2022-09-19T07:21:11;101953.0;;;13.56;84.28
67430;BME280;54298;52.076;5.264;2022-09-19T07:24:34;101952.0;;;13.62;83.85
67430;BME280;54298;52.076;5.264;2022-09-19T07:26:11;101953.0;;;13.74;83.66
67430;BME280;54298;52.076;5.264;2022-09-19T07:27:54;101953.0;;;13.87;84.0
67430;BME280;54298;52.076;5.264;2022-09-19T07:29:30;101953.0;;;13.85;83.72
67430;BME280;54298;52.076;5.264;2022-09-19T07:32:42;101952.0;;;13.88;82.4
67430;BME280;54298;52.076;5.264;2022-09-19T07:34:19;101955.0;;;13.99;82.8
67430;BME280;54298;52.076;5.264;2022-09-19T07:35:56;101957.0;;;14.14;83.11
67430;BME280;54298;52.076;5.264;2022-09-19T07:37:32;101959.0;;;14.13;81.66
67430;BME280;54298;52.076;5.264;2022-09-19T07:40:46;101958.0;;;14.18;81.47
67430;BME280;54298;52.076;5.264;2022-09-19T07:42:22;101957.0;;;14.19;81.83
67430;BME280;54298;52.076;5.264;2022-09-19T07:43:59;101963.0;;;14.38;80.52
67430;BME280;54298;52.076;5.264;2022-09-19T07:47:28;101966.0;;;14.37;80.86
67430;BME280;54298;52.076;5.264;2022-09-19T07:49:05;101970.0;;;14.3;80.36
67430;BME280;54298;52.076;5.264;2022-09-19T07:50:41;101972.0;;;14.46;80.22
67430;BME280;54298;52.076;5.264;2022-09-19T07:52:17;101977.0;;;14.59;79.27
67430;BME280;54298;52.076;5.264;2022-09-19T07:55:30;101984.0;;;14.62;79.27
67430;BME280;54298;52.076;5.264;2022-09-19T07:57:06;101981.0;;;14.59;78.49
67430;BME280;54298;52.076;5.264;2022-09-19T07:58:42;101987.0;;;14.6;77.97
67430;BME280;54298;52.076;5.264;2022-09-19T08:01:55;101994.0;;;14.59;77.83
67430;BME280;54298;52.076;5.264;2022-09-19T08:03:31;101995.0;;;14.74;78.89
67430;BME280;54298;52.076;5.264;2022-09-19T08:05:08;101996.0;;;14.69;78.19
67430;BME280;54298;52.076;5.264;2022-09-19T08:08:22;101996.0;;;14.61;77.78
67430;BME280;54298;52.076;5.264;2022-09-19T08:09:59;101996.0;;;14.52;77.64
67430;BME280;54298;52.076;5.264;2022-09-19T08:11:39;102001.0;;;14.72;76.7
67430;BME280;54298;52.076;5.264;2022-09-19T08:13:17;102001.0;;;14.82;77.45
67430;BME280;54298;52.076;5.264;2022-09-19T08:16:32;102005.0;;;14.7;77.8
67430;BME280;54298;52.076;5.264;2022-09-19T08:18:12;102001.0;;;14.72;76.95
67430;BME280;54298;52.076;5.264;2022-09-19T08:19:50;102005.0;;;14.74;77.11
67430;BME280;54298;52.076;5.264;2022-09-19T08:21:26;102009.0;;;14.83;77.02
67430;BME280;54298;52.076;5.264;2022-09-19T08:24:42;102014.0;;;14.91;77.0
67430;BME280;54298;52.076;5.264;2022-09-19T08:26:18;102010.0;;;14.79;77.83
67430;BME280;54298;52.076;5.264;2022-09-19T08:27:56;102016.0;;;14.87;76.91
67430;BME280;54298;52.076;5.264;2022-09-19T08:31:09;102002.0;;;14.98;76.03
67430;BME280;54298;52.076;5.264;2022-09-19T08:32:46;102007.0;;;15.03;75.78
67430;BME280;54298;52.076;5.264;2022-09-19T08:34:23;102005.0;;;14.95;75.55
67430;BME280;54298;52.076;5.264;2022-09-19T08:37:36;102005.0;;;15.11;75.83
67430;BME280;54298;52.076;5.264;2022-09-19T08:39:12;102005.0;;;15.1;74.97
67430;BME280;54298;52.076;5.264;2022-09-19T08:41:04;102006.0;;;15.31;73.86
67430;BME280;54298;52.076;5.264;2022-09-19T08:43:08;102018.0;;;15.41;74.44
67430;BME280;54298;52.076;5.264;2022-09-19T08:44:56;102018.0;;;15.59;74.33
67430;BME280;54298;52.076;5.264;2022-09-19T08:46:42;102025.0;;;15.56;74.92
67430;BME280;54298;52.076;5.264;2022-09-19T08:50:12;102042.0;;;15.04;79.67
67430;BME280;54298;52.076;5.264;2022-09-19T08:51:54;102055.0;;;14.6;79.84
67430;BME280;54298;52.076;5.264;2022-09-19T08:53:35;102033.0;;;14.67;79.3
67430;BME280;54298;52.076;5.264;2022-09-19T08:55:19;102033.0;;;14.62;79.52
67430;BME280;54298;52.076;5.264;2022-09-19T08:58:40;102030.0;;;14.57;80.61
67430;BME280;54298;52.076;5.264;2022-09-19T09:00:27;102034.0;;;14.47;80.84
67430;BME280;54298;52.076;5.264;2022-09-19T09:02:19;102033.0;;;14.48;80.87
67430;BME280;54298;52.076;5.264;2022-09-19T09:04:17;102036.0;;;14.26;81.99
67430;BME280;54298;52.076;5.264;2022-09-19T09:06:07;102040.0;;;14.2;81.8
67430;BME280;54298;52.076;5.264;2022-09-19T09:07:55;102036.0;;;14.1;82.44
67430;BME280;54298;52.076;5.264;2022-09-19T09:10:04;102033.0;;;14.06;83.25
67430;BME280;54298;52.076;5.264;2022-09-19T09:11:51;102033.0;;;14.1;84.24
67430;BME280;54298;52.076;5.264;2022-09-19T09:15:38;102035.0;;;14.1;85.05
67430;BME280;54298;52.076;5.264;2022-09-19T09:17:34;102034.0;;;14.2;85.61
67430;BME280;54298;52.076;5.264;2022-09-19T09:19:31;102034.0;;;14.3;86.08
67430;BME280;54298;52.076;5.264;2022-09-19T09:21:49;102033.0;;;14.31;85.87
67430;BME280;54298;52.076;5.264;2022-09-19T09:23:31;102031.0;;;14.5;86.02
67430;BME280;54298;52.076;5.264;2022-09-19T09:25:14;102036.0;;;14.51;86.32
67430;BME280;54298;52.076;5.264;2022-09-19T09:26:54;102033.0;;;14.65;85.82
67430;BME280;54298;52.076;5.264;2022-09-19T09:28:39;102034.0;;;14.58;84.23
67430;BME280;54298;52.076;5.264;2022-09-19T09:32:00;102037.0;;;14.42;81.49
67430;BME280;54298;52.076;5.264;2022-09-19T09:33:48;102040.0;;;14.42;80.66
67430;BME280;54298;52.076;5.264;2022-09-19T09:35:30;102041.0;;;14.2;79.61
67430;BME280;54298;52.076;5.264;2022-09-19T09:37:15;102045.0;;;14.15;79.77
67430;BME280;54298;52.076;5.264;2022-09-19T09:38:57;102042.0;;;14.29;80.33
67430;BME280;54298;52.076;5.264;2022-09-19T09:43:36;102050.0;;;14.44;81.61
67430;BME280;54298;52.076;5.264;2022-09-19T09:45:32;102051.0;;;14.47;81.31
67430;BME280;54298;52.076;5.264;2022-09-19T09:49:09;102053.0;;;14.47;79.47
67430;BME280;54298;52.076;5.264;2022-09-19T09:50:58;102052.0;;;14.66;79.61
67430;BME280;54298;52.076;5.264;2022-09-19T09:52:43;102055.0;;;14.66;77.42
67430;BME280;54298;52.076;5.264;2022-09-19T09:57:30;102055.0;;;14.82;76.24
67430;BME280;54298;52.076;5.264;2022-09-19T09:59:20;102055.0;;;14.85;76.27
67430;BME280;54298;52.076;5.264;2022-09-19T10:04:02;102051.0;;;15.1;77.12
67430;BME280;54298;52.076;5.264;2022-09-19T10:07:33;102055.0;;;14.99;75.83
67430;BME280;54298;52.076;5.264;2022-09-19T10:09:19;102055.0;;;15.06;77.08
67430;BME280;54298;52.076;5.264;2022-09-19T10:11:03;102048.0;;;15.04;77.77
67430;BME280;54298;52.076;5.264;2022-09-19T10:12:48;102043.0;;;15.06;77.86
67430;BME280;54298;52.076;5.264;2022-09-19T10:14:28;102042.0;;;15.12;75.5
67430;BME280;54298;52.076;5.264;2022-09-19T10:17:46;102034.0;;;15.24;75.66
67430;BME280;54298;52.076;5.264;2022-09-19T10:19:29;102035.0;;;15.38;77.44
67430;BME280;54298;52.076;5.264;2022-09-19T10:21:09;102043.0;;;15.44;75.36
67430;BME280;54298;52.076;5.264;2022-09-19T10:24:54;102046.0;;;15.58;74.44
67430;BME280;54298;52.076;5.264;2022-09-19T10:26:31;102049.0;;;15.62;75.33
67430;BME280;54298;52.076;5.264;2022-09-19T10:28:16;102061.0;;;15.78;73.83
67430;BME280;54298;52.076;5.264;2022-09-19T10:30:00;102080.0;;;15.82;73.7
67430;BME280;54298;52.076;5.264;2022-09-19T10:31:46;102085.0;;;15.68;73.34
67430;BME280;54298;52.076;5.264;2022-09-19T10:33:26;102076.0;;;15.46;73.8
67430;BME280;54298;52.076;5.264;2022-09-19T10:37:01;102084.0;;;15.29;74.94
67430;BME280;54298;52.076;5.264;2022-09-19T10:38:48;102076.0;;;15.24;76.77
67430;BME280;54298;52.076;5.264;2022-09-19T10:40:32;102077.0;;;15.0;76.05
67430;BME280;54298;52.076;5.264;2022-09-19T10:42:19;102076.0;;;14.71;76.02
67430;BME280;54298;52.076;5.264;2022-09-19T10:44:02;102080.0;;;14.67;76.66
67430;BME280;54298;52.076;5.264;2022-09-19T10:47:22;102080.0;;;14.61;77.47
67430;BME280;54298;52.076;5.264;2022-09-19T10:48:58;102078.0;;;14.61;79.06
67430;BME280;54298;52.076;5.264;2022-09-19T10:50:41;102072.0;;;14.45;78.94
67430;BME280;54298;52.076;5.264;2022-09-19T10:52:21;102069.0;;;14.28;78.7
67430;BME280;54298;52.076;5.264;2022-09-19T10:55:42;102064.0;;;14.33;79.36
67430;BME280;54298;52.076;5.264;2022-09-19T10:57:40;102067.0;;;14.29;80.23
67430;BME280;54298;52.076;5.264;2022-09-19T10:59:24;102068.0;;;14.21;80.38
67430;BME280;54298;52.076;5.264;2022-09-19T11:01:05;102069.0;;;14.32;81.66
67430;BME280;54298;52.076;5.264;2022-09-19T11:02:55;102073.0;;;14.38;83.12
67430;BME280;54298;52.076;5.264;2022-09-19T11:06:12;102071.0;;;14.49;82.98
67430;BME280;54298;52.076;5.264;2022-09-19T11:07:52;102075.0;;;14.59;81.2
67430;BME280;54298;52.076;5.264;2022-09-19T11:09:33;102071.0;;;14.81;80.62
67430;BME280;54298;52.076;5.264;2022-09-19T11:11:20;102074.0;;;14.74;80.14
67430;BME280;54298;52.076;5.264;2022-09-19T11:13:09;102077.0;;;14.98;80.83
67430;BME280;54298;52.076;5.264;2022-09-19T11:16:31;102077.0;;;15.04;79.63
67430;BME280;54298;52.076;5.264;2022-09-19T11:18:18;102070.0;;;15.01;78.58
67430;BME280;54298;52.076;5.264;2022-09-19T11:20:13;102072.0;;;14.95;78.19
67430;BME280;54298;52.076;5.264;2022-09-19T11:22:02;102068.0;;;15.01;77.47
67430;BME280;54298;52.076;5.264;2022-09-19T11:24:20;102065.0;;;15.05;77.02
67430;BME280;54298;52.076;5.264;2022-09-19T11:26:13;102067.0;;;15.05;77.73
67430;BME280;54298;52.076;5.264;2022-09-19T11:28:04;102069.0;;;15.09;77.92
67430;BME280;54298;52.076;5.264;2022-09-19T11:29:58;102069.0;;;15.12;77.23